createdAt,value
2019-06-27T00:01:46.767Z,62.99
2019-06-27T00:04:17.178Z,63.06
2019-06-27T00:06:47.225Z,63.02
2019-06-27T00:09:17.784Z,62.87
2019-06-27T00:11:49.204Z,62.73
2019-06-27T00:14:20.071Z,62.39
2019-06-27T00:16:50.070Z,61.91
2019-06-27T00:19:23.563Z,61.90
2019-06-27T00:21:53.827Z,61.84
2019-06-27T00:24:23.745Z,61.82
2019-06-27T00:26:57.438Z,61.59
2019-06-27T00:29:25.666Z,61.13
2019-06-27T00:31:55.574Z,60.90
2019-06-27T00:34:25.516Z,60.71
2019-06-27T00:36:55.473Z,60.15
2019-06-27T00:39:25.791Z,59.67
2019-06-27T00:41:57.136Z,59.25
2019-06-27T00:44:26.954Z,58.96
2019-06-27T00:46:56.883Z,58.98
2019-06-27T00:49:27.155Z,58.78
2019-06-27T00:51:57.824Z,58.32
2019-06-27T00:54:28.045Z,58.23
2019-06-27T00:57:12.955Z,58.27
2019-06-27T00:59:30.723Z,58.27
2019-06-27T01:02:01.052Z,58.21
2019-06-27T01:04:30.911Z,58.17
2019-06-27T01:07:00.792Z,58.17
2019-06-27T01:09:31.237Z,58.41
2019-06-27T01:12:02.799Z,58.29
2019-06-27T01:14:32.706Z,58.24
2019-06-27T01:17:02.568Z,58.05
2019-06-27T01:19:33.410Z,58.02
2019-06-27T01:22:03.694Z,58.09
2019-06-27T01:24:33.530Z,58.13
2019-06-27T01:27:03.553Z,58.24
2019-06-27T01:29:33.504Z,58.16
2019-06-27T01:32:03.668Z,58.36
2019-06-27T01:34:33.860Z,58.06
2019-06-27T01:37:04.475Z,57.97
2019-06-27T01:39:34.313Z,57.95
2019-06-27T01:42:04.418Z,57.77
2019-06-27T01:45:05.226Z,58.01
2019-06-27T01:47:35.367Z,58.02
2019-06-27T01:50:05.665Z,58.06
2019-06-27T01:52:35.633Z,58.04
2019-06-27T01:55:06.962Z,58.09
2019-06-27T01:57:46.730Z,57.91
2019-06-27T02:00:13.039Z,57.82
2019-06-27T02:02:44.860Z,57.27
2019-06-27T02:05:15.057Z,57.27
2019-06-27T02:07:45.077Z,57.06
2019-06-27T02:10:15.507Z,56.83
2019-06-27T02:12:45.509Z,56.79
2019-06-27T02:15:17.047Z,56.96
2019-06-27T02:17:47.116Z,56.85
2019-06-27T02:20:17.644Z,56.92
2019-06-27T02:22:47.839Z,56.89
2019-06-27T02:25:18.298Z,56.82
2019-06-27T02:28:02.639Z,56.95
2019-06-27T02:30:29.208Z,56.89
2019-06-27T02:32:59.022Z,56.92
2019-06-27T02:35:29.367Z,56.92
2019-06-27T02:37:59.468Z,56.88
2019-06-27T02:40:29.290Z,56.96
2019-06-27T02:42:59.111Z,56.98
2019-06-27T02:45:29.202Z,56.95
2019-06-27T02:47:58.985Z,56.79
2019-06-27T02:50:28.820Z,56.71
2019-06-27T02:52:58.824Z,56.68
2019-06-27T02:55:28.731Z,56.52
2019-06-27T02:57:58.922Z,56.40
2019-06-27T03:00:28.833Z,56.40
2019-06-27T03:02:58.700Z,56.39
2019-06-27T03:05:28.734Z,56.24
2019-06-27T03:07:58.528Z,56.07
2019-06-27T03:10:28.461Z,56.01
2019-06-27T03:12:58.353Z,55.98
2019-06-27T03:15:28.281Z,56.09
2019-06-27T03:17:58.809Z,55.88
2019-06-27T03:20:28.792Z,56.13
2019-06-27T03:22:58.685Z,56.18
2019-06-27T03:25:28.766Z,56.38
2019-06-27T03:27:58.602Z,56.50
2019-06-27T03:30:28.507Z,56.97
2019-06-27T03:32:58.323Z,57.14
2019-06-27T03:35:28.471Z,57.18
2019-06-27T03:37:58.662Z,57.16
2019-06-27T03:40:28.745Z,57.16
2019-06-27T03:42:58.730Z,57.34
2019-06-27T03:45:28.737Z,57.45
2019-06-27T03:47:58.793Z,57.55
2019-06-27T03:50:28.854Z,57.54
2019-06-27T03:52:58.623Z,57.53
2019-06-27T03:55:28.665Z,57.63
2019-06-27T03:57:58.706Z,57.81
2019-06-27T04:00:33.177Z,58.02
2019-06-27T04:03:03.336Z,58.12
2019-06-27T04:05:33.490Z,58.40
2019-06-27T04:08:03.746Z,58.50
2019-06-27T04:10:33.651Z,58.91
2019-06-27T04:13:04.342Z,59.08
2019-06-27T04:15:35.022Z,59.05
2019-06-27T04:18:08.763Z,59.20
2019-06-27T04:20:38.652Z,59.28
2019-06-27T04:23:08.868Z,59.45
2019-06-27T04:25:38.880Z,59.66
2019-06-27T04:28:09.030Z,59.76
2019-06-27T04:30:39.473Z,59.96
2019-06-27T04:33:09.612Z,60.13
2019-06-27T04:35:39.895Z,60.73
2019-06-27T04:38:10.167Z,60.96
2019-06-27T04:40:40.083Z,61.17
2019-06-27T04:43:10.102Z,61.37
2019-06-27T04:45:40.986Z,61.52
2019-06-27T04:48:10.942Z,61.63
2019-06-27T04:50:41.007Z,61.63
2019-06-27T04:53:11.459Z,61.73
2019-06-27T04:55:41.296Z,61.87
2019-06-27T04:58:11.661Z,61.97
2019-06-27T05:00:42.170Z,62.20
2019-06-27T05:03:12.112Z,62.20
2019-06-27T05:05:42.321Z,62.19
2019-06-27T05:08:14.550Z,62.12
2019-06-27T05:10:44.186Z,62.10
2019-06-27T05:13:14.894Z,62.20
2019-06-27T05:15:45.339Z,62.43
2019-06-27T05:18:16.655Z,62.73
2019-06-27T05:20:47.851Z,62.78
2019-06-27T05:23:18.630Z,62.45
2019-06-27T05:25:49.018Z,62.43
2019-06-27T05:28:19.075Z,62.02
2019-06-27T05:30:51.874Z,61.48
2019-06-27T05:33:24.396Z,61.44
2019-06-27T05:35:55.560Z,61.33
2019-06-27T05:38:26.236Z,61.06
2019-06-27T05:40:56.590Z,61.22
2019-06-27T05:43:26.892Z,61.42
2019-06-27T05:45:57.383Z,61.61
2019-06-27T05:48:27.428Z,61.33
2019-06-27T05:50:57.235Z,61.21
2019-06-27T05:53:27.714Z,61.12
2019-06-27T05:55:58.069Z,61.26
2019-06-27T05:58:28.433Z,61.22
2019-06-27T06:00:59.794Z,60.86
2019-06-27T06:03:30.048Z,60.58
2019-06-27T06:06:00.115Z,60.39
2019-06-27T06:08:30.658Z,60.49
2019-06-27T06:11:00.655Z,60.91
2019-06-27T06:13:30.730Z,61.00
2019-06-27T06:16:01.386Z,60.63
2019-06-27T06:18:31.443Z,60.00
2019-06-27T06:21:01.501Z,59.97
2019-06-27T06:23:31.442Z,59.52
2019-06-27T06:26:01.438Z,58.98
2019-06-27T06:28:31.772Z,58.82
2019-06-27T06:31:01.798Z,58.71
2019-06-27T06:33:31.895Z,58.43
2019-06-27T06:36:02.389Z,58.27
2019-06-27T06:38:32.360Z,58.36
2019-06-27T06:41:02.268Z,58.10
2019-06-27T06:43:32.607Z,57.70
2019-06-27T06:46:02.706Z,57.33
2019-06-27T06:48:32.599Z,57.41
2019-06-27T06:51:02.529Z,57.01
2019-06-27T06:53:32.688Z,56.29
2019-06-27T06:56:03.091Z,55.37
2019-06-27T06:58:32.983Z,55.13
2019-06-27T07:01:03.341Z,55.44
2019-06-27T07:03:33.244Z,55.34
2019-06-27T07:06:03.404Z,55.09
2019-06-27T07:08:33.408Z,54.16
2019-06-27T07:11:03.461Z,52.91
2019-06-27T07:13:33.594Z,53.28
2019-06-27T07:16:03.828Z,53.59
2019-06-27T07:18:33.634Z,53.62
2019-06-27T07:21:04.007Z,53.50
2019-06-27T07:23:33.994Z,52.61
2019-06-27T07:26:03.890Z,52.72
2019-06-27T07:28:33.740Z,52.17
2019-06-27T07:31:16.777Z,51.95
2019-06-27T07:33:35.567Z,51.50
2019-06-27T07:36:05.501Z,51.24
2019-06-27T07:38:35.344Z,50.78
2019-06-27T07:41:05.238Z,49.65
2019-06-27T07:43:35.168Z,49.28
2019-06-27T07:46:05.705Z,48.80
2019-06-27T07:48:36.548Z,48.83
2019-06-27T07:51:06.622Z,49.29
2019-06-27T07:53:36.616Z,49.44
2019-06-27T07:56:06.619Z,48.61
2019-06-27T07:58:36.550Z,48.51
2019-06-27T08:01:07.038Z,48.26
2019-06-27T08:03:37.045Z,48.20
2019-06-27T08:06:07.084Z,47.90
2019-06-27T08:08:37.275Z,47.71
2019-06-27T08:11:07.955Z,47.17
2019-06-27T08:13:38.045Z,46.82
2019-06-27T08:16:14.382Z,46.44
2019-06-27T08:18:47.101Z,45.84
2019-06-27T08:21:18.669Z,45.68
2019-06-27T08:23:49.422Z,45.61
2019-06-27T08:26:20.956Z,44.67
2019-06-27T08:28:52.267Z,44.69
2019-06-27T08:31:23.017Z,41.93
2019-06-27T08:33:52.897Z,42.80
2019-06-27T08:36:22.871Z,43.33
2019-06-27T08:38:53.083Z,43.78
2019-06-27T08:41:23.732Z,43.45
2019-06-27T08:43:53.618Z,43.28
2019-06-27T08:46:29.696Z,43.01
2019-06-27T08:48:58.506Z,42.40
2019-06-27T08:51:28.412Z,41.01
2019-06-27T08:53:58.367Z,40.33
2019-06-27T08:56:29.089Z,41.71
2019-06-27T08:58:59.066Z,41.72
2019-06-27T09:01:28.844Z,41.47
2019-06-27T09:03:58.804Z,41.21
2019-06-27T09:06:28.643Z,39.59
2019-06-27T09:08:58.707Z,38.42
2019-06-27T09:11:29.163Z,38.41
2019-06-27T09:13:59.304Z,37.83
2019-06-27T09:16:29.771Z,37.55
2019-06-27T09:18:59.797Z,37.85
2019-06-27T09:21:29.962Z,37.47
2019-06-27T09:24:00.092Z,37.15
2019-06-27T09:26:30.268Z,37.12
2019-06-27T09:29:01.485Z,36.48
2019-06-27T09:31:31.830Z,36.09
2019-06-27T09:34:02.024Z,35.91
2019-06-27T09:36:32.190Z,35.27
2019-06-27T09:39:03.955Z,34.35
2019-06-27T09:41:34.057Z,36.07
2019-06-27T09:44:04.290Z,37.08
2019-06-27T09:46:35.192Z,37.50
2019-06-27T09:49:06.939Z,37.57
2019-06-27T09:51:37.156Z,37.37
2019-06-27T09:54:07.550Z,37.15
2019-06-27T09:56:38.717Z,36.80
2019-06-27T09:59:09.076Z,34.38
2019-06-27T10:01:39.090Z,34.75
2019-06-27T10:04:09.288Z,34.84
2019-06-27T10:06:39.740Z,35.03
2019-06-27T10:09:09.850Z,34.84
2019-06-27T10:11:39.851Z,35.32
2019-06-27T10:14:10.261Z,35.42
2019-06-27T10:16:40.210Z,35.09
2019-06-27T10:19:10.105Z,34.67
2019-06-27T10:21:40.665Z,32.97
2019-06-27T10:24:12.142Z,33.15
2019-06-27T10:26:43.197Z,33.49
2019-06-27T10:29:14.132Z,33.52
2019-06-27T10:31:44.509Z,32.53
2019-06-27T10:34:14.540Z,32.33
2019-06-27T10:36:46.372Z,32.75
2019-06-27T10:39:17.008Z,32.41
2019-06-27T10:41:47.905Z,32.33
2019-06-27T10:44:18.850Z,32.29
2019-06-27T10:46:49.223Z,32.48
2019-06-27T10:49:20.787Z,32.48
2019-06-27T10:51:52.576Z,31.97
2019-06-27T10:54:23.619Z,31.74
2019-06-27T10:56:54.197Z,31.10
2019-06-27T10:59:24.638Z,30.25
2019-06-27T11:01:54.997Z,30.14
2019-06-27T11:04:24.949Z,29.96
2019-06-27T11:06:54.774Z,29.87
2019-06-27T11:09:25.579Z,28.95
2019-06-27T11:11:55.604Z,27.76
2019-06-27T11:14:33.829Z,26.78
2019-06-27T11:17:05.525Z,25.94
2019-06-27T11:19:51.502Z,26.43
2019-06-27T11:22:09.366Z,26.11
2019-06-27T11:24:40.027Z,24.64
2019-06-27T11:27:10.763Z,23.96
2019-06-27T11:29:40.805Z,24.66
2019-06-27T11:32:11.085Z,25.14
2019-06-27T11:34:43.165Z,25.06
2019-06-27T11:37:15.253Z,25.04
2019-06-27T11:39:46.799Z,24.55
2019-06-27T11:42:18.206Z,23.79
2019-06-27T11:44:49.311Z,25.08
2019-06-27T11:47:20.371Z,25.48
2019-06-27T11:49:52.500Z,25.66
2019-06-27T11:52:26.297Z,25.73
2019-06-27T11:54:55.435Z,26.11
2019-06-27T11:57:25.780Z,25.99
2019-06-27T11:59:56.918Z,25.93
2019-06-27T12:02:27.094Z,26.39
2019-06-27T12:04:58.316Z,26.52
2019-06-27T12:07:29.562Z,26.39
2019-06-27T12:10:00.880Z,26.59
2019-06-27T12:12:31.410Z,26.75
2019-06-27T12:15:03.268Z,25.37
2019-06-27T12:17:34.398Z,24.55
2019-06-27T12:20:09.567Z,23.68
2019-06-27T12:22:41.272Z,24.12
2019-06-27T12:25:13.264Z,23.68
2019-06-27T12:27:43.280Z,23.19
2019-06-27T12:30:16.664Z,23.62
2019-06-27T12:32:52.273Z,24.02
2019-06-27T12:35:23.394Z,23.87
2019-06-27T12:37:56.772Z,24.33
2019-06-27T12:40:27.444Z,24.24
2019-06-27T12:42:58.363Z,23.10
2019-06-27T12:45:28.956Z,22.61
2019-06-27T12:48:06.482Z,21.80
2019-06-27T12:50:32.554Z,21.78
2019-06-27T12:53:03.316Z,21.93
2019-06-27T12:55:33.603Z,21.25
2019-06-27T12:58:04.923Z,21.16
2019-06-27T13:00:35.847Z,21.25
2019-06-27T13:03:12.391Z,21.41
2019-06-27T13:05:42.821Z,21.40
2019-06-27T13:08:13.106Z,21.54
2019-06-27T13:10:43.640Z,21.81
2019-06-27T13:13:14.011Z,21.86
2019-06-27T13:15:44.203Z,22.19
2019-06-27T13:18:14.603Z,22.23
2019-06-27T13:20:57.451Z,21.81
2019-06-27T13:23:16.707Z,22.42
2019-06-27T13:25:47.299Z,22.14
2019-06-27T13:28:19.591Z,22.45
2019-06-27T13:30:49.784Z,23.02
2019-06-27T13:33:20.843Z,23.91
2019-06-27T13:35:51.474Z,23.94
2019-06-27T13:38:22.484Z,24.39
2019-06-27T13:40:52.921Z,24.27
2019-06-27T13:43:30.352Z,24.63
2019-06-27T13:46:02.078Z,24.85
2019-06-27T13:48:32.284Z,25.18
2019-06-27T13:51:17.285Z,25.31
2019-06-27T13:53:47.934Z,25.64
2019-06-27T13:56:19.407Z,25.92
2019-06-27T13:58:50.074Z,25.65
2019-06-27T14:01:23.070Z,25.65
2019-06-27T14:03:53.450Z,25.92
2019-06-27T14:06:27.486Z,25.49
2019-06-27T14:09:06.060Z,25.35
2019-06-27T14:11:42.866Z,25.34
2019-06-27T14:14:15.013Z,25.17
2019-06-27T14:16:47.123Z,24.77
2019-06-27T14:19:18.046Z,24.73
2019-06-27T14:21:48.801Z,25.43
2019-06-27T14:24:20.408Z,26.25
2019-06-27T14:26:50.835Z,26.36
2019-06-27T14:29:30.486Z,26.05
2019-06-27T14:32:00.978Z,25.24
2019-06-27T14:34:31.439Z,25.14
2019-06-27T14:37:02.120Z,25.06
2019-06-27T14:39:32.430Z,25.34
2019-06-27T14:42:06.089Z,25.03
2019-06-27T14:44:37.284Z,25.14
2019-06-27T14:47:08.119Z,25.51
2019-06-27T14:49:48.981Z,25.65
2019-06-27T14:52:20.130Z,25.79
2019-06-27T14:54:51.192Z,25.79
2019-06-27T14:57:36.559Z,26.21
2019-06-27T15:00:16.642Z,26.89
2019-06-27T15:02:48.266Z,27.19
2019-06-27T15:05:32.088Z,27.15
2019-06-27T15:07:52.386Z,27.22
2019-06-27T15:10:38.199Z,27.36
2019-06-27T15:13:10.100Z,27.14
2019-06-27T15:15:42.081Z,26.85
2019-06-27T15:18:16.520Z,26.92
2019-06-27T15:20:47.633Z,26.57
2019-06-27T15:23:19.054Z,26.84
2019-06-27T15:25:55.054Z,27.25
2019-06-27T15:28:25.901Z,27.20
2019-06-27T15:30:57.748Z,26.81
2019-06-27T15:33:30.081Z,26.92
2019-06-27T15:36:00.822Z,27.05
2019-06-27T15:38:31.550Z,26.72
2019-06-27T15:41:03.593Z,26.65
2019-06-27T15:43:34.143Z,26.68
2019-06-27T15:46:05.828Z,27.05
2019-06-27T15:48:37.380Z,26.49
2019-06-27T15:51:07.785Z,25.98
2019-06-27T15:53:38.046Z,26.56
2019-06-27T15:56:09.092Z,26.70
2019-06-27T15:58:40.260Z,26.52
2019-06-27T16:01:11.276Z,26.50
2019-06-27T16:03:42.073Z,26.38
2019-06-27T16:06:21.726Z,26.53
2019-06-27T16:08:57.273Z,26.49
2019-06-27T16:11:27.998Z,26.55
2019-06-27T16:13:59.422Z,26.00
2019-06-27T16:16:29.603Z,25.99
2019-06-27T16:19:07.526Z,25.94
2019-06-27T16:21:38.338Z,25.46
2019-06-27T16:24:09.794Z,25.28
2019-06-27T16:26:39.726Z,25.16
2019-06-27T16:29:10.544Z,25.10
2019-06-27T16:31:40.491Z,25.12
2019-06-27T16:34:11.154Z,25.53
2019-06-27T16:36:41.687Z,25.88
2019-06-27T16:39:12.055Z,26.48
2019-06-27T16:41:42.012Z,26.15
2019-06-27T16:44:12.310Z,25.28
2019-06-27T16:46:43.486Z,25.01
2019-06-27T16:49:14.614Z,24.67
2019-06-27T16:51:48.332Z,24.64
2019-06-27T16:54:18.719Z,24.37
2019-06-27T16:56:51.562Z,24.39
2019-06-27T16:59:23.136Z,24.75
2019-06-27T17:01:54.569Z,25.01
2019-06-27T17:04:25.211Z,24.96
2019-06-27T17:06:57.725Z,25.08
2019-06-27T17:09:31.335Z,25.01
2019-06-27T17:12:02.002Z,24.47
2019-06-27T17:14:32.178Z,24.60
2019-06-27T17:17:02.616Z,24.61
2019-06-27T17:19:32.988Z,24.48
2019-06-27T17:22:03.139Z,24.48
2019-06-27T17:24:35.059Z,24.23
2019-06-27T17:27:05.589Z,23.26
2019-06-27T17:29:35.617Z,23.99
2019-06-27T17:32:06.618Z,24.67
2019-06-27T17:34:37.082Z,25.46
2019-06-27T17:37:08.126Z,25.24
2019-06-27T17:39:38.236Z,24.33
2019-06-27T17:42:08.582Z,24.37
2019-06-27T17:44:38.595Z,24.35
2019-06-27T17:47:08.526Z,24.64
2019-06-27T17:49:39.794Z,25.20
2019-06-27T17:52:10.204Z,26.03
2019-06-27T17:54:40.880Z,26.92
2019-06-27T17:57:15.876Z,27.60
2019-06-27T17:59:50.301Z,28.50
2019-06-27T18:02:22.466Z,29.20
2019-06-27T18:04:52.962Z,29.77
2019-06-27T18:07:26.847Z,30.58
2019-06-27T18:10:00.858Z,31.20
2019-06-27T18:12:33.709Z,32.50
2019-06-27T18:15:08.646Z,32.96
2019-06-27T18:17:41.202Z,33.48
2019-06-27T18:20:21.325Z,34.22
2019-06-27T18:22:53.225Z,34.52
2019-06-27T18:25:24.503Z,35.46
2019-06-27T18:27:55.465Z,36.24
2019-06-27T18:30:26.033Z,36.69
2019-06-27T18:32:55.982Z,37.07
2019-06-27T18:35:27.369Z,37.66
2019-06-27T18:37:58.612Z,38.45
2019-06-27T18:40:29.616Z,39.12
2019-06-27T18:43:04.457Z,39.82
2019-06-27T18:45:40.577Z,40.16
2019-06-27T18:48:12.532Z,40.51
2019-06-27T18:50:44.460Z,40.58
2019-06-27T18:53:14.849Z,40.99
2019-06-27T18:55:45.980Z,41.02
2019-06-27T18:58:16.719Z,41.31
2019-06-27T19:01:03.884Z,41.28
2019-06-27T19:03:42.163Z,41.67
2019-06-27T19:06:13.102Z,41.96
2019-06-27T19:08:44.145Z,42.11
2019-06-27T19:11:16.914Z,42.34
2019-06-27T19:13:48.446Z,42.51
2019-06-27T19:16:18.783Z,42.98
2019-06-27T19:18:55.118Z,43.26
2019-06-27T19:21:52.336Z,43.59
2019-06-27T19:24:35.758Z,44.15
2019-06-27T19:27:11.855Z,44.88
2019-06-27T19:29:47.351Z,44.93
2019-06-27T19:32:19.975Z,45.18
2019-06-27T19:34:59.023Z,45.66
2019-06-27T19:37:41.047Z,46.01
2019-06-27T19:40:15.293Z,46.21
2019-06-27T19:42:46.589Z,46.58
2019-06-27T19:45:23.969Z,46.63
2019-06-27T19:47:54.215Z,47.29
2019-06-27T19:50:34.866Z,47.67
2019-06-27T19:53:11.075Z,47.66
2019-06-27T19:55:42.719Z,47.74
2019-06-27T19:58:14.863Z,48.48
2019-06-27T20:00:45.921Z,48.63
2019-06-27T20:03:17.753Z,48.98
2019-06-27T20:05:48.065Z,49.00
2019-06-27T20:08:20.218Z,49.17
2019-06-27T20:10:51.151Z,49.35
2019-06-27T20:13:21.610Z,49.48
2019-06-27T20:15:51.979Z,49.64
2019-06-27T20:18:23.935Z,49.63
2019-06-27T20:20:55.784Z,49.67
2019-06-27T20:23:26.465Z,49.97
2019-06-27T20:25:59.093Z,50.32
2019-06-27T20:28:29.551Z,50.50
2019-06-27T20:31:05.006Z,50.72
2019-06-27T20:33:39.719Z,50.95
2019-06-27T20:36:11.521Z,51.44
2019-06-27T20:38:43.728Z,51.89
2019-06-27T20:41:17.095Z,52.08
2019-06-27T20:44:08.147Z,52.55
2019-06-27T20:47:06.062Z,52.84
2019-06-27T20:49:37.155Z,52.95
2019-06-27T20:52:11.399Z,53.10
2019-06-27T20:54:44.483Z,53.32
2019-06-27T20:57:16.586Z,53.28
2019-06-27T20:59:50.147Z,53.53
2019-06-27T21:02:28.561Z,53.92
2019-06-27T21:05:05.052Z,53.85
2019-06-27T21:07:37.256Z,53.97
2019-06-27T21:10:12.066Z,54.24
2019-06-27T21:12:48.061Z,54.30
2019-06-27T21:15:20.917Z,54.35
2019-06-27T21:17:55.939Z,54.47
2019-06-27T21:20:30.333Z,54.55
2019-06-27T21:23:06.453Z,54.59
2019-06-27T21:25:41.030Z,54.25
2019-06-27T21:28:16.439Z,54.22
2019-06-27T21:31:03.747Z,54.17
2019-06-27T21:33:35.471Z,54.30
2019-06-27T21:36:07.350Z,54.40
2019-06-27T21:38:40.071Z,54.31
2019-06-27T21:41:13.593Z,54.30
2019-06-27T21:43:44.638Z,54.26
2019-06-27T21:46:16.019Z,54.32
2019-06-27T21:48:50.071Z,54.42
2019-06-27T21:51:21.641Z,54.59
2019-06-27T21:53:55.005Z,54.97
2019-06-27T21:56:26.523Z,55.13
2019-06-27T21:59:00.151Z,55.31
2019-06-27T22:01:31.392Z,55.45
2019-06-27T22:04:06.068Z,55.70
2019-06-27T22:06:41.553Z,55.82
2019-06-27T22:09:23.932Z,55.98
2019-06-27T22:11:44.963Z,56.16
2019-06-27T22:14:15.966Z,56.21
2019-06-27T22:16:48.483Z,56.34
2019-06-27T22:19:26.277Z,56.48
2019-06-27T22:21:59.899Z,56.63
2019-06-27T22:24:30.765Z,56.71
2019-06-27T22:27:01.947Z,56.77
2019-06-27T22:29:32.507Z,56.97
2019-06-27T22:32:03.136Z,57.06
2019-06-27T22:34:33.578Z,57.08
2019-06-27T22:37:04.833Z,57.29
2019-06-27T22:39:53.683Z,57.36
2019-06-27T22:42:46.545Z,57.53
2019-06-27T22:45:36.679Z,57.59
2019-06-27T22:48:13.077Z,57.65
2019-06-27T22:51:05.693Z,57.83
2019-06-27T22:53:45.308Z,58.01
2019-06-27T22:56:18.847Z,58.20
2019-06-27T22:58:50.500Z,58.30
2019-06-27T23:01:22.495Z,58.40
2019-06-27T23:03:54.412Z,58.52
2019-06-27T23:06:33.471Z,58.63
2019-06-27T23:09:05.531Z,58.71
2019-06-27T23:11:37.699Z,58.74
2019-06-27T23:14:07.831Z,58.90
2019-06-27T23:16:41.680Z,59.00
2019-06-27T23:19:12.165Z,58.98
2019-06-27T23:21:42.925Z,59.00
2019-06-27T23:24:19.703Z,59.17
2019-06-27T23:26:50.390Z,59.28
2019-06-27T23:29:21.688Z,59.33
2019-06-27T23:31:51.829Z,59.40
2019-06-27T23:34:24.662Z,59.45
2019-06-27T23:36:55.885Z,59.59
2019-06-27T23:39:26.080Z,59.83
2019-06-27T23:41:59.481Z,59.96
2019-06-27T23:44:29.375Z,60.08
2019-06-27T23:47:00.229Z,60.27
2019-06-27T23:49:30.784Z,60.40
2019-06-27T23:52:01.062Z,60.50
2019-06-27T23:54:31.660Z,60.56
2019-06-27T23:57:02.330Z,60.62
2019-06-27T23:59:32.208Z,60.72
